sensor_id;sensor_type;location;lat;lon;timestamp;temperature;humidity
6333;DHT22;3199;49.102;8.856;2023-03-14T00:01:56;10.90;99.90
6333;DHT22;3199;49.102;8.856;2023-03-14T00:04:21;10.90;99.90
6333;DHT22;3199;49.102;8.856;2023-03-14T00:06:47;10.80;99.90
6333;DHT22;3199;49.102;8.856;2023-03-14T00:09:15;10.80;99.90
6333;DHT22;3199;49.102;8.856;2023-03-14T00:11:40;10.80;99.90
6333;DHT22;3199;49.102;8.856;2023-03-14T00:14:06;10.80;99.90
6333;DHT22;3199;49.102;8.856;2023-03-14T00:16:32;10.80;99.90
6333;DHT22;3199;49.102;8.856;2023-03-14T00:19:00;10.80;99.90
6333;DHT22;3199;49.102;8.856;2023-03-14T00:21:25;10.80;99.90
6333;DHT22;3199;49.102;8.856;2023-03-14T00:23:51;10.80;99.90
6333;DHT22;3199;49.102;8.856;2023-03-14T00:26:19;10.80;99.90
6333;DHT22;3199;49.102;8.856;2023-03-14T00:28:45;10.70;99.90
6333;DHT22;3199;49.102;8.856;2023-03-14T00:31:14;10.70;99.90
6333;DHT22;3199;49.102;8.856;2023-03-14T00:33:39;10.70;99.90
6333;DHT22;3199;49.102;8.856;2023-03-14T00:36:10;10.70;99.90
6333;DHT22;3199;49.102;8.856;2023-03-14T00:38:37;10.70;99.90
6333;DHT22;3199;49.102;8.856;2023-03-14T00:41:08;10.70;99.90
6333;DHT22;3199;49.102;8.856;2023-03-14T00:43:34;10.70;99.90
6333;DHT22;3199;49.102;8.856;2023-03-14T00:46:00;10.70;99.90
6333;DHT22;3199;49.102;8.856;2023-03-14T00:48:26;10.70;99.90
6333;DHT22;3199;49.102;8.856;2023-03-14T00:50:52;10.70;99.90
6333;DHT22;3199;49.102;8.856;2023-03-14T00:53:18;10.70;99.90
6333;DHT22;3199;49.102;8.856;2023-03-14T00:55:43;10.70;99.90
6333;DHT22;3199;49.102;8.856;2023-03-14T00:58:11;10.70;99.90
6333;DHT22;3199;49.102;8.856;2023-03-14T01:00:37;10.60;99.90
6333;DHT22;3199;49.102;8.856;2023-03-14T01:03:04;10.70;99.90
6333;DHT22;3199;49.102;8.856;2023-03-14T01:05:30;10.70;99.90
6333;DHT22;3199;49.102;8.856;2023-03-14T01:07:56;10.60;99.90
6333;DHT22;3199;49.102;8.856;2023-03-14T01:10:22;10.70;99.90
6333;DHT22;3199;49.102;8.856;2023-03-14T01:12:48;10.70;99.90
6333;DHT22;3199;49.102;8.856;2023-03-14T01:15:13;10.70;99.90
6333;DHT22;3199;49.102;8.856;2023-03-14T01:17:39;10.70;99.90
6333;DHT22;3199;49.102;8.856;2023-03-14T01:20:06;10.70;99.90
6333;DHT22;3199;49.102;8.856;2023-03-14T01:22:35;10.70;99.90
6333;DHT22;3199;49.102;8.856;2023-03-14T01:25:00;10.80;99.90
6333;DHT22;3199;49.102;8.856;2023-03-14T01:27:26;10.80;99.90
6333;DHT22;3199;49.102;8.856;2023-03-14T01:29:52;10.80;99.90
6333;DHT22;3199;49.102;8.856;2023-03-14T01:32:17;10.90;99.90
6333;DHT22;3199;49.102;8.856;2023-03-14T01:34:43;10.90;99.90
6333;DHT22;3199;49.102;8.856;2023-03-14T01:37:08;10.90;99.90
6333;DHT22;3199;49.102;8.856;2023-03-14T01:39:34;10.90;99.90
6333;DHT22;3199;49.102;8.856;2023-03-14T01:42:00;10.80;99.90
6333;DHT22;3199;49.102;8.856;2023-03-14T01:44:26;10.80;99.90
6333;DHT22;3199;49.102;8.856;2023-03-14T01:46:52;10.80;99.90
6333;DHT22;3199;49.102;8.856;2023-03-14T01:49:33;10.80;99.90
6333;DHT22;3199;49.102;8.856;2023-03-14T01:54:43;10.80;99.90
6333;DHT22;3199;49.102;8.856;2023-03-14T01:57:16;10.80;99.90
6333;DHT22;3199;49.102;8.856;2023-03-14T01:59:51;10.80;99.90
6333;DHT22;3199;49.102;8.856;2023-03-14T02:02:18;10.70;99.90
6333;DHT22;3199;49.102;8.856;2023-03-14T02:04:44;10.70;99.90
6333;DHT22;3199;49.102;8.856;2023-03-14T02:07:27;10.70;99.90
6333;DHT22;3199;49.102;8.856;2023-03-14T02:09:56;10.70;99.90
6333;DHT22;3199;49.102;8.856;2023-03-14T02:12:22;10.70;99.90
6333;DHT22;3199;49.102;8.856;2023-03-14T02:14:48;10.70;99.90
6333;DHT22;3199;49.102;8.856;2023-03-14T02:17:16;10.70;99.90
6333;DHT22;3199;49.102;8.856;2023-03-14T02:20:10;10.70;99.90
6333;DHT22;3199;49.102;8.856;2023-03-14T02:22:40;10.60;99.90
6333;DHT22;3199;49.102;8.856;2023-03-14T02:25:17;10.60;99.90
6333;DHT22;3199;49.102;8.856;2023-03-14T02:27:45;10.60;99.90
6333;DHT22;3199;49.102;8.856;2023-03-14T02:30:16;10.50;99.90
6333;DHT22;3199;49.102;8.856;2023-03-14T02:32:48;10.50;99.90
6333;DHT22;3199;49.102;8.856;2023-03-14T02:35:22;10.50;99.90
6333;DHT22;3199;49.102;8.856;2023-03-14T02:38:09;10.50;99.90
6333;DHT22;3199;49.102;8.856;2023-03-14T02:40:36;10.50;99.90
6333;DHT22;3199;49.102;8.856;2023-03-14T02:43:02;10.50;99.90
6333;DHT22;3199;49.102;8.856;2023-03-14T02:45:40;10.50;99.90
6333;DHT22;3199;49.102;8.856;2023-03-14T02:48:10;10.40;99.90
6333;DHT22;3199;49.102;8.856;2023-03-14T02:50:37;10.40;99.90
6333;DHT22;3199;49.102;8.856;2023-03-14T02:53:03;10.40;99.90
6333;DHT22;3199;49.102;8.856;2023-03-14T02:55:29;10.40;99.90
6333;DHT22;3199;49.102;8.856;2023-03-14T02:57:54;10.40;99.90
6333;DHT22;3199;49.102;8.856;2023-03-14T03:00:20;10.40;99.90
6333;DHT22;3199;49.102;8.856;2023-03-14T03:02:46;10.40;99.90
6333;DHT22;3199;49.102;8.856;2023-03-14T03:05:12;10.50;99.90
6333;DHT22;3199;49.102;8.856;2023-03-14T03:07:37;10.50;99.90
6333;DHT22;3199;49.102;8.856;2023-03-14T03:10:03;10.40;99.90
6333;DHT22;3199;49.102;8.856;2023-03-14T03:12:29;10.40;99.90
6333;DHT22;3199;49.102;8.856;2023-03-14T03:14:55;10.40;99.90
6333;DHT22;3199;49.102;8.856;2023-03-14T03:17:20;10.40;99.90
6333;DHT22;3199;49.102;8.856;2023-03-14T03:19:46;10.40;99.90
6333;DHT22;3199;49.102;8.856;2023-03-14T03:22:11;10.30;99.90
6333;DHT22;3199;49.102;8.856;2023-03-14T03:24:37;10.30;99.90
6333;DHT22;3199;49.102;8.856;2023-03-14T03:27:02;10.30;99.90
6333;DHT22;3199;49.102;8.856;2023-03-14T03:29:28;10.20;99.90
6333;DHT22;3199;49.102;8.856;2023-03-14T03:31:53;10.20;99.90
6333;DHT22;3199;49.102;8.856;2023-03-14T03:34:19;10.20;99.90
6333;DHT22;3199;49.102;8.856;2023-03-14T03:36:45;10.20;99.90
6333;DHT22;3199;49.102;8.856;2023-03-14T03:39:10;10.20;99.90
6333;DHT22;3199;49.102;8.856;2023-03-14T03:41:36;10.20;99.90
6333;DHT22;3199;49.102;8.856;2023-03-14T03:44:01;10.20;99.90
6333;DHT22;3199;49.102;8.856;2023-03-14T03:46:27;10.20;99.90
6333;DHT22;3199;49.102;8.856;2023-03-14T03:48:56;10.20;99.90
6333;DHT22;3199;49.102;8.856;2023-03-14T03:51:22;10.20;99.90
6333;DHT22;3199;49.102;8.856;2023-03-14T03:53:47;10.30;99.90
6333;DHT22;3199;49.102;8.856;2023-03-14T03:56:13;10.30;99.90
6333;DHT22;3199;49.102;8.856;2023-03-14T03:58:39;10.30;99.90
6333;DHT22;3199;49.102;8.856;2023-03-14T04:01:05;10.30;99.90
6333;DHT22;3199;49.102;8.856;2023-03-14T04:03:35;10.30;99.90
6333;DHT22;3199;49.102;8.856;2023-03-14T04:06:03;10.30;99.90
6333;DHT22;3199;49.102;8.856;2023-03-14T04:08:28;10.30;99.90
6333;DHT22;3199;49.102;8.856;2023-03-14T04:10:58;10.30;99.90
6333;DHT22;3199;49.102;8.856;2023-03-14T04:13:24;10.30;99.90
6333;DHT22;3199;49.102;8.856;2023-03-14T04:15:51;10.30;99.90
6333;DHT22;3199;49.102;8.856;2023-03-14T04:18:17;10.30;99.90
6333;DHT22;3199;49.102;8.856;2023-03-14T04:20:42;10.30;99.90
6333;DHT22;3199;49.102;8.856;2023-03-14T04:23:08;10.30;99.90
6333;DHT22;3199;49.102;8.856;2023-03-14T04:25:33;10.30;99.90
6333;DHT22;3199;49.102;8.856;2023-03-14T04:27:59;10.40;99.90
6333;DHT22;3199;49.102;8.856;2023-03-14T04:30:24;10.40;99.90
6333;DHT22;3199;49.102;8.856;2023-03-14T04:32:50;10.30;99.90
6333;DHT22;3199;49.102;8.856;2023-03-14T04:35:15;10.30;99.90
6333;DHT22;3199;49.102;8.856;2023-03-14T04:37:41;10.30;99.90
6333;DHT22;3199;49.102;8.856;2023-03-14T04:40:10;10.30;99.90
6333;DHT22;3199;49.102;8.856;2023-03-14T04:42:36;10.30;99.90
6333;DHT22;3199;49.102;8.856;2023-03-14T04:45:02;10.30;99.90
6333;DHT22;3199;49.102;8.856;2023-03-14T04:47:28;10.30;99.90
6333;DHT22;3199;49.102;8.856;2023-03-14T04:49:53;10.30;99.90
6333;DHT22;3199;49.102;8.856;2023-03-14T04:52:19;10.20;99.90
6333;DHT22;3199;49.102;8.856;2023-03-14T04:54:44;10.20;99.90
6333;DHT22;3199;49.102;8.856;2023-03-14T04:57:10;10.20;99.90
6333;DHT22;3199;49.102;8.856;2023-03-14T04:59:35;10.20;99.90
6333;DHT22;3199;49.102;8.856;2023-03-14T05:02:01;10.20;99.90
6333;DHT22;3199;49.102;8.856;2023-03-14T05:04:26;10.20;99.90
6333;DHT22;3199;49.102;8.856;2023-03-14T05:06:52;10.20;99.90
6333;DHT22;3199;49.102;8.856;2023-03-14T05:09:17;10.10;99.90
6333;DHT22;3199;49.102;8.856;2023-03-14T05:11:43;10.10;99.90
6333;DHT22;3199;49.102;8.856;2023-03-14T05:14:08;10.10;99.90
6333;DHT22;3199;49.102;8.856;2023-03-14T05:16:34;10.10;99.90
6333;DHT22;3199;49.102;8.856;2023-03-14T05:18:59;10.10;99.90
6333;DHT22;3199;49.102;8.856;2023-03-14T05:21:27;10.10;99.90
6333;DHT22;3199;49.102;8.856;2023-03-14T05:23:53;10.00;99.90
6333;DHT22;3199;49.102;8.856;2023-03-14T05:26:19;10.00;99.90
6333;DHT22;3199;49.102;8.856;2023-03-14T05:28:44;10.10;99.90
6333;DHT22;3199;49.102;8.856;2023-03-14T05:31:10;10.10;99.90
6333;DHT22;3199;49.102;8.856;2023-03-14T05:33:36;10.10;99.90
6333;DHT22;3199;49.102;8.856;2023-03-14T05:36:01;10.10;99.90
6333;DHT22;3199;49.102;8.856;2023-03-14T05:38:27;10.20;99.90
6333;DHT22;3199;49.102;8.856;2023-03-14T05:40:52;10.20;99.90
6333;DHT22;3199;49.102;8.856;2023-03-14T05:43:18;10.20;99.90
6333;DHT22;3199;49.102;8.856;2023-03-14T05:45:44;10.30;99.90
6333;DHT22;3199;49.102;8.856;2023-03-14T05:48:09;10.30;99.90
6333;DHT22;3199;49.102;8.856;2023-03-14T05:50:36;10.30;99.90
6333;DHT22;3199;49.102;8.856;2023-03-14T05:53:01;10.40;99.90
6333;DHT22;3199;49.102;8.856;2023-03-14T05:55:27;10.50;99.90
6333;DHT22;3199;49.102;8.856;2023-03-14T05:57:53;10.50;99.90
6333;DHT22;3199;49.102;8.856;2023-03-14T06:00:19;10.60;99.90
6333;DHT22;3199;49.102;8.856;2023-03-14T06:02:45;10.60;99.90
6333;DHT22;3199;49.102;8.856;2023-03-14T06:05:11;10.60;99.90
6333;DHT22;3199;49.102;8.856;2023-03-14T06:07:37;10.60;99.90
6333;DHT22;3199;49.102;8.856;2023-03-14T06:10:03;10.70;99.90
6333;DHT22;3199;49.102;8.856;2023-03-14T06:12:29;10.70;99.90
6333;DHT22;3199;49.102;8.856;2023-03-14T06:14:54;10.70;99.90
6333;DHT22;3199;49.102;8.856;2023-03-14T06:17:20;10.70;99.90
6333;DHT22;3199;49.102;8.856;2023-03-14T06:19:45;10.70;99.90
6333;DHT22;3199;49.102;8.856;2023-03-14T06:22:11;10.70;99.90
6333;DHT22;3199;49.102;8.856;2023-03-14T06:24:37;10.60;99.90
6333;DHT22;3199;49.102;8.856;2023-03-14T06:27:02;10.60;99.90
6333;DHT22;3199;49.102;8.856;2023-03-14T06:29:29;10.60;99.90
6333;DHT22;3199;49.102;8.856;2023-03-14T06:31:55;10.60;99.90
6333;DHT22;3199;49.102;8.856;2023-03-14T06:34:20;10.60;99.90
6333;DHT22;3199;49.102;8.856;2023-03-14T06:36:46;10.60;99.90
6333;DHT22;3199;49.102;8.856;2023-03-14T06:39:11;10.70;99.90
6333;DHT22;3199;49.102;8.856;2023-03-14T06:41:37;10.70;99.90
6333;DHT22;3199;49.102;8.856;2023-03-14T06:44:02;10.80;99.90
6333;DHT22;3199;49.102;8.856;2023-03-14T06:46:28;10.80;99.90
6333;DHT22;3199;49.102;8.856;2023-03-14T06:48:54;10.90;99.90
6333;DHT22;3199;49.102;8.856;2023-03-14T06:51:19;11.00;99.90
6333;DHT22;3199;49.102;8.856;2023-03-14T06:53:45;11.10;99.90
6333;DHT22;3199;49.102;8.856;2023-03-14T06:56:10;11.20;99.90
6333;DHT22;3199;49.102;8.856;2023-03-14T06:58:36;11.40;99.90
6333;DHT22;3199;49.102;8.856;2023-03-14T07:01:02;11.50;99.90
6333;DHT22;3199;49.102;8.856;2023-03-14T07:03:27;11.60;99.90
6333;DHT22;3199;49.102;8.856;2023-03-14T07:05:53;11.60;99.90
6333;DHT22;3199;49.102;8.856;2023-03-14T07:08:19;11.60;99.90
6333;DHT22;3199;49.102;8.856;2023-03-14T07:10:44;11.50;99.90
6333;DHT22;3199;49.102;8.856;2023-03-14T07:13:10;11.50;99.90
6333;DHT22;3199;49.102;8.856;2023-03-14T07:15:35;11.60;99.90
6333;DHT22;3199;49.102;8.856;2023-03-14T07:18:01;11.60;99.90
6333;DHT22;3199;49.102;8.856;2023-03-14T07:20:27;11.70;99.90
6333;DHT22;3199;49.102;8.856;2023-03-14T07:22:52;11.80;99.90
6333;DHT22;3199;49.102;8.856;2023-03-14T07:25:19;11.80;99.90
6333;DHT22;3199;49.102;8.856;2023-03-14T07:27:45;11.80;99.90
6333;DHT22;3199;49.102;8.856;2023-03-14T07:30:13;11.80;99.90
6333;DHT22;3199;49.102;8.856;2023-03-14T07:32:39;11.70;99.90
6333;DHT22;3199;49.102;8.856;2023-03-14T07:35:05;11.70;99.90
6333;DHT22;3199;49.102;8.856;2023-03-14T07:37:31;11.70;99.90
6333;DHT22;3199;49.102;8.856;2023-03-14T07:39:56;11.70;99.90
6333;DHT22;3199;49.102;8.856;2023-03-14T07:42:22;11.70;99.90
6333;DHT22;3199;49.102;8.856;2023-03-14T07:44:47;11.60;99.90
6333;DHT22;3199;49.102;8.856;2023-03-14T07:47:13;11.60;99.90
6333;DHT22;3199;49.102;8.856;2023-03-14T07:49:38;11.60;99.90
6333;DHT22;3199;49.102;8.856;2023-03-14T07:52:04;11.60;99.90
6333;DHT22;3199;49.102;8.856;2023-03-14T07:54:29;11.50;99.90
6333;DHT22;3199;49.102;8.856;2023-03-14T07:56:55;11.50;99.90
6333;DHT22;3199;49.102;8.856;2023-03-14T07:59:21;11.60;99.90
6333;DHT22;3199;49.102;8.856;2023-03-14T08:01:46;11.60;99.90
6333;DHT22;3199;49.102;8.856;2023-03-14T08:04:12;11.60;99.90
6333;DHT22;3199;49.102;8.856;2023-03-14T08:06:37;11.60;99.90
6333;DHT22;3199;49.102;8.856;2023-03-14T08:09:03;11.70;99.90
6333;DHT22;3199;49.102;8.856;2023-03-14T08:11:29;11.70;99.90
6333;DHT22;3199;49.102;8.856;2023-03-14T08:13:55;11.70;99.90
6333;DHT22;3199;49.102;8.856;2023-03-14T08:16:21;11.70;99.90
6333;DHT22;3199;49.102;8.856;2023-03-14T08:18:47;11.80;99.90
6333;DHT22;3199;49.102;8.856;2023-03-14T08:21:13;11.80;99.90
6333;DHT22;3199;49.102;8.856;2023-03-14T08:23:39;11.90;99.90
6333;DHT22;3199;49.102;8.856;2023-03-14T08:26:05;11.90;99.90
6333;DHT22;3199;49.102;8.856;2023-03-14T08:28:31;11.90;99.90
6333;DHT22;3199;49.102;8.856;2023-03-14T08:30:59;11.90;99.90
6333;DHT22;3199;49.102;8.856;2023-03-14T08:33:25;11.90;99.90
6333;DHT22;3199;49.102;8.856;2023-03-14T08:35:55;11.90;99.90
6333;DHT22;3199;49.102;8.856;2023-03-14T08:38:21;11.90;99.90
6333;DHT22;3199;49.102;8.856;2023-03-14T08:40:47;11.80;99.90
6333;DHT22;3199;49.102;8.856;2023-03-14T08:43:13;11.80;99.90
6333;DHT22;3199;49.102;8.856;2023-03-14T08:45:38;11.80;99.90
6333;DHT22;3199;49.102;8.856;2023-03-14T08:48:04;11.80;99.90
6333;DHT22;3199;49.102;8.856;2023-03-14T08:50:30;11.80;99.90
6333;DHT22;3199;49.102;8.856;2023-03-14T08:52:55;11.80;99.90
6333;DHT22;3199;49.102;8.856;2023-03-14T08:55:23;11.80;99.90
6333;DHT22;3199;49.102;8.856;2023-03-14T08:57:48;11.80;99.90
6333;DHT22;3199;49.102;8.856;2023-03-14T09:00:14;11.80;99.90
6333;DHT22;3199;49.102;8.856;2023-03-14T09:02:41;11.70;99.90
6333;DHT22;3199;49.102;8.856;2023-03-14T09:05:07;11.60;99.90
6333;DHT22;3199;49.102;8.856;2023-03-14T09:07:33;11.50;99.90
6333;DHT22;3199;49.102;8.856;2023-03-14T09:09:59;11.50;99.90
6333;DHT22;3199;49.102;8.856;2023-03-14T09:12:24;11.50;99.90
6333;DHT22;3199;49.102;8.856;2023-03-14T09:14:50;11.60;99.90
6333;DHT22;3199;49.102;8.856;2023-03-14T09:17:15;11.70;99.90
6333;DHT22;3199;49.102;8.856;2023-03-14T09:19:41;11.70;99.90
6333;DHT22;3199;49.102;8.856;2023-03-14T09:22:06;11.80;99.90
6333;DHT22;3199;49.102;8.856;2023-03-14T09:24:32;11.90;99.90
6333;DHT22;3199;49.102;8.856;2023-03-14T09:26:57;12.00;99.90
6333;DHT22;3199;49.102;8.856;2023-03-14T09:29:23;12.00;99.90
6333;DHT22;3199;49.102;8.856;2023-03-14T09:31:49;12.00;99.90
6333;DHT22;3199;49.102;8.856;2023-03-14T09:34:15;11.90;99.90
6333;DHT22;3199;49.102;8.856;2023-03-14T09:36:40;11.90;99.90
6333;DHT22;3199;49.102;8.856;2023-03-14T09:39:06;11.90;99.90
6333;DHT22;3199;49.102;8.856;2023-03-14T09:41:41;12.00;99.90
6333;DHT22;3199;49.102;8.856;2023-03-14T09:46:50;12.00;99.90
6333;DHT22;3199;49.102;8.856;2023-03-14T09:49:23;12.00;99.90
6333;DHT22;3199;49.102;8.856;2023-03-14T09:51:52;12.10;99.90
6333;DHT22;3199;49.102;8.856;2023-03-14T09:56:52;12.00;99.90
6333;DHT22;3199;49.102;8.856;2023-03-14T09:59:18;12.00;99.90
6333;DHT22;3199;49.102;8.856;2023-03-14T10:01:44;12.10;99.90
6333;DHT22;3199;49.102;8.856;2023-03-14T10:04:15;12.10;99.90
6333;DHT22;3199;49.102;8.856;2023-03-14T10:06:43;12.10;99.90
6333;DHT22;3199;49.102;8.856;2023-03-14T10:09:19;12.20;99.90
6333;DHT22;3199;49.102;8.856;2023-03-14T10:11:51;12.30;99.90
6333;DHT22;3199;49.102;8.856;2023-03-14T10:14:29;12.30;99.90
6333;DHT22;3199;49.102;8.856;2023-03-14T10:17:05;12.30;99.90
6333;DHT22;3199;49.102;8.856;2023-03-14T10:19:31;12.20;99.90
6333;DHT22;3199;49.102;8.856;2023-03-14T10:21:56;12.10;99.90
6333;DHT22;3199;49.102;8.856;2023-03-14T10:24:30;12.00;99.90
6333;DHT22;3199;49.102;8.856;2023-03-14T10:27:05;11.90;99.90
6333;DHT22;3199;49.102;8.856;2023-03-14T10:29:33;11.70;99.90
6333;DHT22;3199;49.102;8.856;2023-03-14T10:32:00;11.60;99.90
6333;DHT22;3199;49.102;8.856;2023-03-14T10:34:35;11.60;99.90
6333;DHT22;3199;49.102;8.856;2023-03-14T10:37:21;11.70;99.90
6333;DHT22;3199;49.102;8.856;2023-03-14T10:39:52;11.70;99.90
6333;DHT22;3199;49.102;8.856;2023-03-14T10:42:25;11.80;99.90
6333;DHT22;3199;49.102;8.856;2023-03-14T10:44:56;11.70;99.90
6333;DHT22;3199;49.102;8.856;2023-03-14T10:47:24;11.60;99.90
6333;DHT22;3199;49.102;8.856;2023-03-14T10:49:51;11.60;99.90
6333;DHT22;3199;49.102;8.856;2023-03-14T10:54:50;11.50;99.90
6333;DHT22;3199;49.102;8.856;2023-03-14T10:57:19;11.40;99.90
6333;DHT22;3199;49.102;8.856;2023-03-14T10:59:45;11.50;99.90
6333;DHT22;3199;49.102;8.856;2023-03-14T11:05:13;11.40;99.90
6333;DHT22;3199;49.102;8.856;2023-03-14T11:07:42;11.50;99.90
6333;DHT22;3199;49.102;8.856;2023-03-14T11:15:57;11.60;99.90
6333;DHT22;3199;49.102;8.856;2023-03-14T11:26:41;11.20;99.90
6333;DHT22;3199;49.102;8.856;2023-03-14T11:29:41;11.00;99.90
6333;DHT22;3199;49.102;8.856;2023-03-14T11:32:36;11.00;99.90
6333;DHT22;3199;49.102;8.856;2023-03-14T11:34:59;10.90;99.90
6333;DHT22;3199;49.102;8.856;2023-03-14T11:37:36;10.90;99.90
6333;DHT22;3199;49.102;8.856;2023-03-14T11:42:43;10.90;99.90
6333;DHT22;3199;49.102;8.856;2023-03-14T11:45:39;10.80;99.90
6333;DHT22;3199;49.102;8.856;2023-03-14T11:48:28;10.80;99.90
6333;DHT22;3199;49.102;8.856;2023-03-14T11:50:57;10.70;99.90
6333;DHT22;3199;49.102;8.856;2023-03-14T11:56:55;10.60;99.90
6333;DHT22;3199;49.102;8.856;2023-03-14T11:59:29;10.60;99.90
6333;DHT22;3199;49.102;8.856;2023-03-14T12:02:10;10.50;99.90
6333;DHT22;3199;49.102;8.856;2023-03-14T12:07:27;10.40;99.90
6333;DHT22;3199;49.102;8.856;2023-03-14T12:09:54;10.40;99.90
6333;DHT22;3199;49.102;8.856;2023-03-14T12:12:23;10.20;99.90
6333;DHT22;3199;49.102;8.856;2023-03-14T12:14:58;10.00;99.90
6333;DHT22;3199;49.102;8.856;2023-03-14T12:17:39;9.70;99.90
6333;DHT22;3199;49.102;8.856;2023-03-14T12:20:15;9.60;99.90
6333;DHT22;3199;49.102;8.856;2023-03-14T12:25:19;9.30;99.90
6333;DHT22;3199;49.102;8.856;2023-03-14T12:30:37;9.10;99.90
6333;DHT22;3199;49.102;8.856;2023-03-14T12:35:36;9.00;99.90
6333;DHT22;3199;49.102;8.856;2023-03-14T12:38:04;8.90;99.90
6333;DHT22;3199;49.102;8.856;2023-03-14T12:40:33;9.00;99.90
6333;DHT22;3199;49.102;8.856;2023-03-14T12:43:02;9.00;99.90
6333;DHT22;3199;49.102;8.856;2023-03-14T12:45:36;9.10;99.90
6333;DHT22;3199;49.102;8.856;2023-03-14T12:48:31;9.10;99.90
6333;DHT22;3199;49.102;8.856;2023-03-14T12:51:18;9.10;99.90
6333;DHT22;3199;49.102;8.856;2023-03-14T12:53:53;9.10;99.90
6333;DHT22;3199;49.102;8.856;2023-03-14T12:56:57;9.20;99.90
6333;DHT22;3199;49.102;8.856;2023-03-14T12:59:52;9.10;99.90
6333;DHT22;3199;49.102;8.856;2023-03-14T13:02:43;9.10;99.90
6333;DHT22;3199;49.102;8.856;2023-03-14T13:05:21;9.10;99.90
6333;DHT22;3199;49.102;8.856;2023-03-14T13:10:24;9.20;99.90
6333;DHT22;3199;49.102;8.856;2023-03-14T13:15:31;9.20;99.90
6333;DHT22;3199;49.102;8.856;2023-03-14T13:18:15;9.20;99.90
6333;DHT22;3199;49.102;8.856;2023-03-14T13:21:20;9.30;99.90
6333;DHT22;3199;49.102;8.856;2023-03-14T13:24:00;9.50;99.90
6333;DHT22;3199;49.102;8.856;2023-03-14T13:26:35;9.70;99.90
6333;DHT22;3199;49.102;8.856;2023-03-14T13:29:30;9.80;99.90
6333;DHT22;3199;49.102;8.856;2023-03-14T13:31:58;10.00;99.90
6333;DHT22;3199;49.102;8.856;2023-03-14T13:34:29;10.00;98.50
6333;DHT22;3199;49.102;8.856;2023-03-14T13:36:56;10.10;98.30
6333;DHT22;3199;49.102;8.856;2023-03-14T13:39:24;10.10;97.70
6333;DHT22;3199;49.102;8.856;2023-03-14T13:41:52;10.30;96.50
6333;DHT22;3199;49.102;8.856;2023-03-14T13:44:27;10.40;95.50
6333;DHT22;3199;49.102;8.856;2023-03-14T13:46:59;10.50;92.90
6333;DHT22;3199;49.102;8.856;2023-03-14T13:49:26;10.40;91.80
6333;DHT22;3199;49.102;8.856;2023-03-14T13:51:52;10.40;90.90
6333;DHT22;3199;49.102;8.856;2023-03-14T13:54:22;10.30;91.60
6333;DHT22;3199;49.102;8.856;2023-03-14T13:56:48;10.40;92.40
6333;DHT22;3199;49.102;8.856;2023-03-14T13:59:40;10.40;91.90
6333;DHT22;3199;49.102;8.856;2023-03-14T14:02:15;10.40;91.30
6333;DHT22;3199;49.102;8.856;2023-03-14T14:04:41;10.50;91.70
6333;DHT22;3199;49.102;8.856;2023-03-14T14:07:08;10.50;90.60
6333;DHT22;3199;49.102;8.856;2023-03-14T14:09:52;10.50;90.10
6333;DHT22;3199;49.102;8.856;2023-03-14T14:14:57;10.30;89.10
6333;DHT22;3199;49.102;8.856;2023-03-14T14:17:31;10.20;90.00
6333;DHT22;3199;49.102;8.856;2023-03-14T14:19:57;10.20;88.80
6333;DHT22;3199;49.102;8.856;2023-03-14T14:22:25;10.10;87.40
6333;DHT22;3199;49.102;8.856;2023-03-14T14:24:51;10.00;85.50
6333;DHT22;3199;49.102;8.856;2023-03-14T14:27:49;9.90;86.10
6333;DHT22;3199;49.102;8.856;2023-03-14T14:32:45;10.00;86.00
6333;DHT22;3199;49.102;8.856;2023-03-14T14:35:23;10.10;87.80
6333;DHT22;3199;49.102;8.856;2023-03-14T14:37:49;10.10;86.20
6333;DHT22;3199;49.102;8.856;2023-03-14T14:40:24;10.10;87.10
6333;DHT22;3199;49.102;8.856;2023-03-14T14:42:50;10.10;85.50
6333;DHT22;3199;49.102;8.856;2023-03-14T14:45:18;10.00;83.70
6333;DHT22;3199;49.102;8.856;2023-03-14T14:48:04;10.00;83.80
6333;DHT22;3199;49.102;8.856;2023-03-14T14:50:37;10.00;81.10
6333;DHT22;3199;49.102;8.856;2023-03-14T14:53:23;10.10;82.20
6333;DHT22;3199;49.102;8.856;2023-03-14T14:55:51;10.20;81.30
6333;DHT22;3199;49.102;8.856;2023-03-14T14:58:34;10.20;80.20
6333;DHT22;3199;49.102;8.856;2023-03-14T15:01:15;10.20;80.60
6333;DHT22;3199;49.102;8.856;2023-03-14T15:03:43;10.10;81.80
6333;DHT22;3199;49.102;8.856;2023-03-14T15:06:12;10.00;80.50
6333;DHT22;3199;49.102;8.856;2023-03-14T15:08:38;10.00;81.10
6333;DHT22;3199;49.102;8.856;2023-03-14T15:11:04;10.00;81.50
6333;DHT22;3199;49.102;8.856;2023-03-14T15:13:30;10.00;83.30
6333;DHT22;3199;49.102;8.856;2023-03-14T15:15:56;10.10;82.60
6333;DHT22;3199;49.102;8.856;2023-03-14T15:18:24;10.10;80.80
6333;DHT22;3199;49.102;8.856;2023-03-14T15:20:50;10.00;80.70
6333;DHT22;3199;49.102;8.856;2023-03-14T15:23:18;9.80;82.60
6333;DHT22;3199;49.102;8.856;2023-03-14T15:25:43;9.80;81.90
6333;DHT22;3199;49.102;8.856;2023-03-14T15:28:17;9.80;82.30
6333;DHT22;3199;49.102;8.856;2023-03-14T15:30:43;9.80;83.20
6333;DHT22;3199;49.102;8.856;2023-03-14T15:33:09;9.90;83.90
6333;DHT22;3199;49.102;8.856;2023-03-14T15:35:37;10.00;81.80
6333;DHT22;3199;49.102;8.856;2023-03-14T15:38:03;10.00;81.90
6333;DHT22;3199;49.102;8.856;2023-03-14T15:40:29;10.00;80.00
6333;DHT22;3199;49.102;8.856;2023-03-14T15:42:55;9.90;81.00
6333;DHT22;3199;49.102;8.856;2023-03-14T15:45:21;9.80;82.50
6333;DHT22;3199;49.102;8.856;2023-03-14T15:47:46;9.70;83.20
6333;DHT22;3199;49.102;8.856;2023-03-14T15:50:12;9.60;83.90
6333;DHT22;3199;49.102;8.856;2023-03-14T15:52:38;9.50;84.20
6333;DHT22;3199;49.102;8.856;2023-03-14T15:55:03;9.40;84.90
6333;DHT22;3199;49.102;8.856;2023-03-14T15:57:29;9.40;85.60
6333;DHT22;3199;49.102;8.856;2023-03-14T15:59:54;9.30;85.80
6333;DHT22;3199;49.102;8.856;2023-03-14T16:02:20;9.30;86.40
6333;DHT22;3199;49.102;8.856;2023-03-14T16:04:45;9.20;86.10
6333;DHT22;3199;49.102;8.856;2023-03-14T16:07:11;9.20;86.70
6333;DHT22;3199;49.102;8.856;2023-03-14T16:09:37;9.20;88.10
6333;DHT22;3199;49.102;8.856;2023-03-14T16:12:02;9.20;88.60
6333;DHT22;3199;49.102;8.856;2023-03-14T16:14:30;9.20;88.80
6333;DHT22;3199;49.102;8.856;2023-03-14T16:16:55;9.10;89.00
6333;DHT22;3199;49.102;8.856;2023-03-14T16:19:25;9.10;89.30
6333;DHT22;3199;49.102;8.856;2023-03-14T16:21:52;9.10;88.80
6333;DHT22;3199;49.102;8.856;2023-03-14T16:24:17;9.10;90.10
6333;DHT22;3199;49.102;8.856;2023-03-14T16:26:43;9.00;90.30
6333;DHT22;3199;49.102;8.856;2023-03-14T16:29:09;9.00;90.00
6333;DHT22;3199;49.102;8.856;2023-03-14T16:31:35;9.00;90.00
6333;DHT22;3199;49.102;8.856;2023-03-14T16:34:09;9.00;90.00
6333;DHT22;3199;49.102;8.856;2023-03-14T16:36:35;9.00;90.10
6333;DHT22;3199;49.102;8.856;2023-03-14T16:39:01;8.90;90.20
6333;DHT22;3199;49.102;8.856;2023-03-14T16:41:26;8.90;90.20
6333;DHT22;3199;49.102;8.856;2023-03-14T16:43:58;8.80;90.40
6333;DHT22;3199;49.102;8.856;2023-03-14T16:46:25;8.80;90.60
6333;DHT22;3199;49.102;8.856;2023-03-14T16:48:52;8.80;90.80
6333;DHT22;3199;49.102;8.856;2023-03-14T16:51:18;8.80;90.70
6333;DHT22;3199;49.102;8.856;2023-03-14T16:53:44;8.80;90.70
6333;DHT22;3199;49.102;8.856;2023-03-14T16:56:11;8.70;90.80
6333;DHT22;3199;49.102;8.856;2023-03-14T16:58:37;8.70;91.10
6333;DHT22;3199;49.102;8.856;2023-03-14T17:01:04;8.60;91.20
6333;DHT22;3199;49.102;8.856;2023-03-14T17:03:38;8.60;91.00
6333;DHT22;3199;49.102;8.856;2023-03-14T17:06:04;8.50;91.20
6333;DHT22;3199;49.102;8.856;2023-03-14T17:08:30;8.40;91.60